Flight Track Log - Related Links

Times and Time Zones

All times are in EDT time to prevent confusion due to time zone crossing. See the ASQ5128 flight status page for this flight to view local times or setup timezone preferences in your user account.

Time Position Orientation Groundspeed Altitude Reporting Facility
EDT Latitude Longitude Course Direction KTS MPH feet Rate Location/Type
Tue 06:41:09 AM 32.3603 -86.4217 55° Northeast 268 308 4,000  Level Atlanta Center
Tue 06:42:00 AM 32.5191 -86.0238 55° Northeast  Level FlightAware Approximate
Tue 06:42:09 AM 32.3992 -86.3464 59° Northeast 221 254 7,300  Level Atlanta Center
Tue 06:43:00 AM 32.5627 -85.9512 55° Northeast  Level FlightAware Approximate
Tue 06:43:09 AM 32.4425 -86.2661 57° Northeast 242 278 9,900  Level Atlanta Center
Tue 06:44:09 AM 32.4961 -86.1764 55° Northeast 293 337 11,700 1,800 Climbing Atlanta Center
Tue 06:45:09 AM 32.5542 -86.0792 55° Northeast 334 384 13,500 1,850 Climbing Atlanta Center
Tue 06:46:09 AM 32.6103 -85.9744 58° Northeast 360 414 15,400 1,650 Climbing Atlanta Center
Tue 06:47:09 AM 32.6722 -85.8672 56° Northeast 374 430 16,800 1,350 Climbing Atlanta Center
Tue 06:48:09 AM 32.7386 -85.7553 55° Northeast 396 456 18,100 1,100 Climbing Atlanta Center
Tue 06:49:09 AM 32.8050 -85.6378 56° Northeast 407 468 19,000 450 Climbing Atlanta Center
Tue 06:50:09 AM 32.8711 -85.5228 56° Northeast 421 484 19,000  Level Atlanta Center
Tue 06:51:09 AM 32.9350 -85.4075 57° Northeast 421 484 19,000  Level Atlanta Center
Tue 06:52:09 AM 33.0008 -85.2947 55° Northeast 421 484 19,000 -700 Level Atlanta Center
Tue 06:53:09 AM 33.0689 -85.1817 54° Northeast 421 484 17,600 -1,950 Descending Atlanta Center
Tue 06:54:09 AM 33.1406 -85.0908 47° Northeast 404 465 15,100 -1,800 Descending Atlanta Center
Tue 06:55:09 AM 33.2125 -84.9947 48° Northeast 382 440 14,000 -1,150 Descending Atlanta Center
Tue 06:56:09 AM 33.2839 -84.9036 47° Northeast 377 434 12,800 -1,000 Descending Atlanta Center
Tue 06:57:09 AM 33.3536 -84.8047 50° Northeast 377 434 12,000 -462 Descending Atlanta Center
Tue 06:57:53 AM 33.4167 -84.7333 43° Northeast 378 435 12,000  Level Atlanta TRACON
Tue 06:58:59 AM 33.4667 -84.6500 54° Northeast 298 343 12,000 -95 Level Atlanta TRACON
Tue 06:59:59 AM 33.5167 -84.5833 48° Northeast 265 305 11,800 -579 Descending Atlanta TRACON
Tue 07:00:53 AM 33.5500 -84.5167 59° Northeast 248 285 10,900 -1,263 Descending Atlanta TRACON
Tue 07:01:53 AM 33.5500 -84.4333 90° East 251 289 9,400 -1,810 Descending Atlanta TRACON
Tue 07:02:59 AM 33.5500 -84.3500 90° East 236 272 7,100 -2,100 Descending Atlanta TRACON
Tue 07:03:53 AM 33.5500 -84.2667 90° East 231 266 5,200 -2,039 Descending Atlanta TRACON
Tue 07:04:42 AM 33.5500 -84.2167 90° East 226 260 3,600 -1,167 Descending Atlanta TRACON
Tue 07:05:41 AM 33.5833 -84.1667 51° Northeast 217 250 3,100 -265 Descending Atlanta TRACON
Tue 07:06:35 AM 33.6167 -84.1833 337° Northwest 200 230 3,100 -53 Level Atlanta TRACON
Tue 07:07:35 AM 33.6333 -84.2333 292° West 181 208 3,000  Descending Atlanta TRACON
Tue 07:08:29 AM 33.6333 -84.2833 270° West 175 201 3,100 -333 Climbing Atlanta TRACON
Tue 07:09:23 AM 33.6333 -84.3333 270° West 162 186 2,400 -789 Descending Atlanta TRACON
Tue 07:10:23 AM 33.6333 -84.3833 270° West 134 154 1,600 -800 Descending Atlanta TRACON
Tue 07:12:00 AM 33.6333 -84.4167 301° West  Level FlightAware Approximate
Tue 07:19:00 AM 33.6367 -84.4279 301° West  Level Estimated

Login

Don't have an account? Register now (free) for customized features, flight alerts, and more!